AJI9584 KSAV-KLBB
Flight info
| Callsign | AJI9584 |
|---|---|
| Flight time | N/A |
| Altitude | 34000 |
| Route | SMALZ WIGVO DBN MINIM SQS J52 TXK SPS |
| Aircraft | B738/M-SDE2E3FGHIRWXY/LB1 |
Departure
| Time | 2026-05-06 22:40 |
|---|---|
| Airport | Savannah Hilton Head International Airport (KSAV) |
Arrival
| Time | N/A |
|---|---|
| Airport | Lubbock Preston Smith International Airport (KLBB) |
| Time | Latitude | Longitude | Altitude | Speed | Heading |
|---|---|---|---|---|---|
| 2026-05-06 22:22 | 32.13528 | -81.20609 | 38 ft | 0 kts | 327° |
| 2026-05-06 22:32 | 32.13515 | -81.20599 | 40 ft | 2 kts | 327° |
| 2026-05-06 22:33 | 32.13502 | -81.20588 | 39 ft | 2 kts | 327° |
| 2026-05-06 22:33 | 32.13488 | -81.20578 | 36 ft | 2 kts | 343° |
| 2026-05-06 22:33 | 32.13472 | -81.20577 | 38 ft | 2 kts | 19° |
| 2026-05-06 22:33 | 32.13458 | -81.20587 | 37 ft | 2 kts | 53° |
| 2026-05-06 22:34 | 32.13451 | -81.20604 | 40 ft | 2 kts | 79° |
| 2026-05-06 22:34 | 32.13450 | -81.20612 | 40 ft | 0 kts | 90° |
| 2026-05-06 22:37 | 32.13450 | -81.20606 | 40 ft | 3 kts | 92° |
| 2026-05-06 22:37 | 32.13448 | -81.20549 | 39 ft | 10 kts | 91° |
| 2026-05-06 22:37 | 32.13447 | -81.20451 | 47 ft | 13 kts | 90° |
| 2026-05-06 22:37 | 32.13459 | -81.20353 | 53 ft | 12 kts | 51° |
| 2026-05-06 22:38 | 32.13539 | -81.20331 | 53 ft | 12 kts | 13° |
| 2026-05-06 22:38 | 32.13573 | -81.20254 | 60 ft | 12 kts | 90° |
| 2026-05-06 22:38 | 32.13572 | -81.20161 | 66 ft | 10 kts | 89° |
| 2026-05-06 22:38 | 32.13572 | -81.20083 | 68 ft | 9 kts | 89° |
| 2026-05-06 22:39 | 32.13563 | -81.20020 | 61 ft | 6 kts | 147° |
| 2026-05-06 22:39 | 32.13523 | -81.20014 | 66 ft | 10 kts | 178° |
| 2026-05-06 22:39 | 32.13253 | -81.20011 | 58 ft | 75 kts | 180° |
| 2026-05-06 22:39 | 32.12495 | -81.20005 | 48 ft | 140 kts | 179° |
| 2026-05-06 22:40 | 32.11380 | -81.20010 | 370 ft | 168 kts | 180° |
| 2026-05-06 22:40 | 32.10228 | -81.20043 | 1257 ft | 164 kts | 182° |
| 2026-05-06 22:40 | 32.09096 | -81.20127 | 2064 ft | 166 kts | 198° |
| 2026-05-06 22:40 | 32.08105 | -81.20987 | 2355 ft | 197 kts | 237° |
| 2026-05-06 22:41 | 32.07982 | -81.24445 | 3011 ft | 236 kts | 293° |
| 2026-05-06 22:41 | 32.09071 | -81.25997 | 3297 ft | 258 kts | 320° |
| 2026-05-06 22:41 | 32.10592 | -81.27188 | 3990 ft | 264 kts | 326° |
| 2026-05-06 22:42 | 32.12182 | -81.28276 | 4905 ft | 265 kts | 327° |
| 2026-05-06 22:42 | 32.13792 | -81.29354 | 5563 ft | 273 kts | 327° |
| 2026-05-06 22:42 | 32.15452 | -81.30472 | 6362 ft | 277 kts | 326° |
| 2026-05-06 22:42 | 32.17132 | -81.31614 | 7092 ft | 280 kts | 326° |
| 2026-05-06 22:43 | 32.18820 | -81.32768 | 7885 ft | 281 kts | 325° |
| 2026-05-06 22:43 | 32.20519 | -81.33937 | 8651 ft | 284 kts | 324° |
| 2026-05-06 22:43 | 32.22230 | -81.35119 | 9438 ft | 286 kts | 324° |
| 2026-05-06 22:43 | 32.23950 | -81.36310 | 10188 ft | 288 kts | 324° |
| 2026-05-06 22:44 | 32.25723 | -81.37545 | 10526 ft | 306 kts | 324° |
| 2026-05-06 22:44 | 32.27625 | -81.38874 | 10695 ft | 329 kts | 324° |
| 2026-05-06 22:44 | 32.29653 | -81.40291 | 10853 ft | 349 kts | 324° |
| 2026-05-06 22:44 | 32.31774 | -81.41769 | 10988 ft | 367 kts | 325° |
| 2026-05-06 22:45 | 32.34054 | -81.43355 | 11132 ft | 383 kts | 325° |
| 2026-05-06 22:45 | 32.36350 | -81.44950 | 11491 ft | 390 kts | 325° |
| 2026-05-06 22:45 | 32.38685 | -81.46570 | 12172 ft | 388 kts | 325° |
| 2026-05-06 22:45 | 32.41011 | -81.48190 | 12806 ft | 388 kts | 325° |
| 2026-05-06 22:46 | 32.43340 | -81.49821 | 13321 ft | 390 kts | 323° |
| 2026-05-06 22:46 | 32.45397 | -81.51854 | 13809 ft | 384 kts | 305° |
| 2026-05-06 22:46 | 32.46711 | -81.54563 | 14317 ft | 378 kts | 289° |
| 2026-05-06 22:46 | 32.47392 | -81.57549 | 14836 ft | 376 kts | 276° |
| 2026-05-06 22:47 | 32.47433 | -81.60647 | 15305 ft | 377 kts | 268° |
| 2026-05-06 22:47 | 32.47309 | -81.63762 | 15747 ft | 380 kts | 267° |
| 2026-05-06 22:47 | 32.47162 | -81.66896 | 16187 ft | 382 kts | 267° |
| 2026-05-06 22:47 | 32.47017 | -81.70039 | 16670 ft | 382 kts | 267° |
| 2026-05-06 22:48 | 32.46880 | -81.73184 | 17135 ft | 383 kts | 268° |
| 2026-05-06 22:48 | 32.46751 | -81.76348 | 17558 ft | 385 kts | 268° |
| 2026-05-06 22:48 | 32.46630 | -81.79486 | 17979 ft | 387 kts | 268° |
| 2026-05-06 22:48 | 32.46509 | -81.82681 | 18380 ft | 389 kts | 268° |
| 2026-05-06 22:49 | 32.46388 | -81.85887 | 18728 ft | 390 kts | 268° |
| 2026-05-06 22:49 | 32.46267 | -81.89106 | 19079 ft | 392 kts | 268° |
| 2026-05-06 22:49 | 32.46144 | -81.92332 | 19422 ft | 393 kts | 268° |
| 2026-05-06 22:49 | 32.46020 | -81.95572 | 19767 ft | 395 kts | 268° |
| 2026-05-06 22:50 | 32.45895 | -81.98825 | 20086 ft | 397 kts | 268° |
| 2026-05-06 22:50 | 32.45771 | -82.02097 | 20415 ft | 398 kts | 269° |
| 2026-05-06 22:50 | 32.45862 | -82.05380 | 20732 ft | 399 kts | 277° |
| 2026-05-06 22:50 | 32.46316 | -82.08631 | 21081 ft | 400 kts | 279° |
| 2026-05-06 22:51 | 32.46785 | -82.11881 | 21387 ft | 402 kts | 279° |
| 2026-05-06 22:51 | 32.47244 | -82.15151 | 21693 ft | 403 kts | 279° |
| 2026-05-06 22:51 | 32.47698 | -82.18438 | 21985 ft | 405 kts | 279° |
| 2026-05-06 22:51 | 32.48147 | -82.21736 | 22280 ft | 406 kts | 278° |
| 2026-05-06 22:52 | 32.48445 | -82.23926 | 22476 ft | 407 kts | 278° |
| 2026-05-06 22:52 | 32.48893 | -82.27243 | 22762 ft | 409 kts | 279° |
| 2026-05-06 22:52 | 32.49343 | -82.30579 | 23029 ft | 410 kts | 279° |
| 2026-05-06 22:52 | 32.49940 | -82.35012 | 23374 ft | 412 kts | 279° |
| 2026-05-06 22:53 | 32.50391 | -82.38372 | 23629 ft | 414 kts | 279° |
| 2026-05-06 22:53 | 32.50696 | -82.40649 | 23800 ft | 414 kts | 278° |
| 2026-05-06 22:53 | 32.51146 | -82.44006 | 24150 ft | 412 kts | 278° |
| 2026-05-06 22:53 | 32.51595 | -82.47366 | 24359 ft | 413 kts | 278° |
| 2026-05-06 22:54 | 32.52045 | -82.50739 | 24513 ft | 416 kts | 278° |
| 2026-05-06 22:54 | 32.52497 | -82.54132 | 24703 ft | 417 kts | 278° |
| 2026-05-06 22:54 | 32.52943 | -82.57490 | 24908 ft | 418 kts | 278° |
| 2026-05-06 22:54 | 32.53395 | -82.60906 | 25098 ft | 419 kts | 278° |
| 2026-05-06 22:55 | 32.53847 | -82.64322 | 25286 ft | 420 kts | 278° |
| 2026-05-06 22:55 | 32.54299 | -82.67748 | 25478 ft | 421 kts | 278° |
| 2026-05-06 22:55 | 32.54751 | -82.71182 | 25651 ft | 422 kts | 278° |
| 2026-05-06 22:55 | 32.55205 | -82.74631 | 25818 ft | 424 kts | 278° |
| 2026-05-06 22:56 | 32.55659 | -82.78089 | 25994 ft | 425 kts | 278° |
| 2026-05-06 22:56 | 32.56113 | -82.81561 | 26160 ft | 426 kts | 278° |
| 2026-05-06 22:56 | 32.56647 | -82.85022 | 26314 ft | 427 kts | 282° |
| 2026-05-06 22:56 | 32.57327 | -82.88408 | 26457 ft | 428 kts | 283° |
| 2026-05-06 22:57 | 32.58065 | -82.91846 | 26587 ft | 429 kts | 283° |
| 2026-05-06 22:57 | 32.58813 | -82.95270 | 26709 ft | 430 kts | 283° |
| 2026-05-06 22:57 | 32.59560 | -82.98702 | 26812 ft | 430 kts | 283° |
| 2026-05-06 22:57 | 32.60302 | -83.02148 | 26948 ft | 430 kts | 283° |
| 2026-05-06 22:58 | 32.61033 | -83.05585 | 27113 ft | 429 kts | 283° |
| 2026-05-06 22:58 | 32.61757 | -83.09022 | 27289 ft | 429 kts | 283° |
| 2026-05-06 22:58 | 32.62473 | -83.12444 | 27453 ft | 428 kts | 283° |
| 2026-05-06 22:58 | 32.63189 | -83.15875 | 27599 ft | 428 kts | 283° |
| 2026-05-06 22:59 | 32.63903 | -83.19314 | 27701 ft | 429 kts | 283° |
| 2026-05-06 22:59 | 32.64617 | -83.22755 | 27835 ft | 429 kts | 283° |
| 2026-05-06 22:59 | 32.65319 | -83.26146 | 28021 ft | 428 kts | 283° |
| 2026-05-06 22:59 | 32.66027 | -83.29572 | 28218 ft | 427 kts | 283° |
| 2026-05-06 23:00 | 32.66735 | -83.32996 | 28400 ft | 427 kts | 283° |
| 2026-05-06 23:00 | 32.67440 | -83.36418 | 28578 ft | 426 kts | 283° |
| 2026-05-06 23:00 | 32.68145 | -83.39838 | 28779 ft | 426 kts | 283° |
| 2026-05-06 23:00 | 32.68845 | -83.43242 | 28990 ft | 425 kts | 283° |
| 2026-05-06 23:01 | 32.69545 | -83.46652 | 29188 ft | 424 kts | 283° |
| 2026-05-06 23:01 | 32.70244 | -83.50060 | 29358 ft | 424 kts | 283° |
| 2026-05-06 23:01 | 32.70942 | -83.53466 | 29551 ft | 424 kts | 283° |
| 2026-05-06 23:01 | 32.71639 | -83.56876 | 29769 ft | 424 kts | 283° |
| 2026-05-06 23:02 | 32.72332 | -83.60272 | 29980 ft | 423 kts | 283° |
| 2026-05-06 23:02 | 32.73022 | -83.63655 | 30228 ft | 420 kts | 282° |
| 2026-05-06 23:02 | 32.73706 | -83.67013 | 30544 ft | 416 kts | 282° |
| 2026-05-06 23:02 | 32.74384 | -83.70348 | 30790 ft | 414 kts | 282° |
| 2026-05-06 23:03 | 32.75050 | -83.73629 | 30973 ft | 414 kts | 282° |
| 2026-05-06 23:03 | 32.75722 | -83.76946 | 31156 ft | 413 kts | 282° |
| 2026-05-06 23:03 | 32.76394 | -83.80265 | 31371 ft | 412 kts | 282° |
| 2026-05-06 23:03 | 32.77061 | -83.83566 | 31616 ft | 410 kts | 282° |
| 2026-05-06 23:04 | 32.77725 | -83.86853 | 31839 ft | 409 kts | 282° |
| 2026-05-06 23:04 | 32.78387 | -83.90138 | 32042 ft | 408 kts | 282° |
| 2026-05-06 23:04 | 32.79046 | -83.93416 | 32254 ft | 407 kts | 282° |
| 2026-05-06 23:04 | 32.79705 | -83.96694 | 32477 ft | 406 kts | 282° |
| 2026-05-06 23:05 | 32.80358 | -83.99945 | 32732 ft | 404 kts | 282° |
| 2026-05-06 23:05 | 32.81007 | -84.03188 | 32981 ft | 402 kts | 282° |
| 2026-05-06 23:05 | 32.81645 | -84.06373 | 33230 ft | 400 kts | 282° |
| 2026-05-06 23:05 | 32.82286 | -84.09583 | 33482 ft | 399 kts | 281° |
| 2026-05-06 23:06 | 32.82927 | -84.12795 | 33699 ft | 398 kts | 281° |
| 2026-05-06 23:06 | 32.83562 | -84.15985 | 33911 ft | 397 kts | 281° |
| 2026-05-06 23:06 | 32.84198 | -84.19181 | 34000 ft | 397 kts | 281° |
| 2026-05-06 23:07 | 32.85469 | -84.25587 | 34017 ft | 398 kts | 281° |
| 2026-05-06 23:07 | 32.86737 | -84.31988 | 34011 ft | 397 kts | 281° |
| 2026-05-06 23:08 | 32.87999 | -84.38383 | 33983 ft | 397 kts | 281° |
| 2026-05-06 23:08 | 32.89261 | -84.44793 | 33979 ft | 398 kts | 281° |
| 2026-05-06 23:09 | 32.90518 | -84.51200 | 33985 ft | 398 kts | 281° |
| 2026-05-06 23:09 | 32.91774 | -84.57620 | 33980 ft | 398 kts | 281° |
| 2026-05-06 23:10 | 32.93029 | -84.64049 | 33973 ft | 398 kts | 281° |
| 2026-05-06 23:10 | 32.94270 | -84.70428 | 33984 ft | 398 kts | 281° |
| 2026-05-06 23:11 | 32.95518 | -84.76859 | 33990 ft | 398 kts | 281° |
| 2026-05-06 23:11 | 32.96761 | -84.83286 | 33987 ft | 399 kts | 281° |
| 2026-05-06 23:12 | 32.98003 | -84.89726 | 33988 ft | 399 kts | 281° |
| 2026-05-06 23:12 | 32.99241 | -84.96164 | 34002 ft | 399 kts | 281° |
| 2026-05-06 23:13 | 33.00478 | -85.02614 | 33997 ft | 399 kts | 281° |
| 2026-05-06 23:13 | 33.01713 | -85.09075 | 33995 ft | 400 kts | 281° |
| 2026-05-06 23:14 | 33.02941 | -85.15519 | 34004 ft | 401 kts | 281° |
| 2026-05-06 23:14 | 33.04175 | -85.22017 | 33999 ft | 402 kts | 281° |
| 2026-05-06 23:15 | 33.05409 | -85.28525 | 33975 ft | 403 kts | 281° |
| 2026-05-06 23:15 | 33.06639 | -85.35039 | 33977 ft | 403 kts | 281° |
| 2026-05-06 23:16 | 33.07866 | -85.41559 | 33981 ft | 401 kts | 280° |
| 2026-05-06 23:16 | 33.09076 | -85.47997 | 33975 ft | 397 kts | 280° |
| 2026-05-06 23:17 | 33.10280 | -85.54429 | 33970 ft | 398 kts | 280° |
| 2026-05-06 23:17 | 33.11476 | -85.60841 | 33969 ft | 398 kts | 280° |
| 2026-05-06 23:18 | 33.12680 | -85.67314 | 33972 ft | 398 kts | 279° |
| 2026-05-06 23:18 | 33.13871 | -85.73733 | 33972 ft | 399 kts | 279° |
| 2026-05-06 23:19 | 33.15066 | -85.80198 | 33971 ft | 399 kts | 279° |
| 2026-05-06 23:19 | 33.16259 | -85.86667 | 33970 ft | 399 kts | 279° |
| 2026-05-06 23:20 | 33.17448 | -85.93135 | 33974 ft | 399 kts | 279° |
| 2026-05-06 23:20 | 33.18635 | -85.99616 | 33975 ft | 399 kts | 279° |
| 2026-05-06 23:21 | 33.19811 | -86.06051 | 33971 ft | 399 kts | 279° |
| 2026-05-06 23:21 | 33.20990 | -86.12531 | 33955 ft | 400 kts | 279° |
| 2026-05-06 23:22 | 33.22169 | -86.19024 | 33960 ft | 399 kts | 279° |
| 2026-05-06 23:22 | 33.23344 | -86.25516 | 33982 ft | 400 kts | 279° |
| 2026-05-06 23:23 | 33.24515 | -86.32007 | 33985 ft | 400 kts | 279° |
| 2026-05-06 23:23 | 33.25682 | -86.38499 | 33982 ft | 400 kts | 279° |
| 2026-05-06 23:24 | 33.26841 | -86.44963 | 33972 ft | 400 kts | 279° |
| 2026-05-06 23:24 | 33.28002 | -86.51465 | 33973 ft | 400 kts | 279° |
| 2026-05-06 23:25 | 33.29162 | -86.57973 | 33954 ft | 400 kts | 278° |
| 2026-05-06 23:25 | 33.30316 | -86.64471 | 33957 ft | 399 kts | 278° |